createdAt,value
2023-03-16T00:00:11.000Z,67.7
2023-03-16T00:01:27.000Z,67.4
2023-03-16T00:02:42.000Z,67.6
2023-03-16T00:03:58.000Z,67.9
2023-03-16T00:05:15.000Z,67.3
2023-03-16T00:06:31.000Z,67.3
2023-03-16T00:07:47.000Z,67.5
2023-03-16T00:09:03.000Z,67.6
2023-03-16T00:10:20.000Z,67.9
2023-03-16T00:11:36.000Z,68.3
2023-03-16T00:12:52.000Z,68.8
2023-03-16T00:14:09.000Z,68.6
2023-03-16T00:15:25.000Z,68.6
2023-03-16T00:16:41.000Z,68.6
2023-03-16T00:17:57.000Z,68.8
2023-03-16T00:19:13.000Z,69
2023-03-16T00:20:29.000Z,68.8
2023-03-16T00:21:45.000Z,68.5
2023-03-16T00:23:02.000Z,68.4
2023-03-16T00:24:18.000Z,68.6
2023-03-16T00:25:34.000Z,68.6
2023-03-16T00:26:50.000Z,68.5
2023-03-16T00:28:06.527Z,68.8
2023-03-16T00:29:21.000Z,69
2023-03-16T00:30:37.000Z,68.8
2023-03-16T00:31:54.000Z,69
2023-03-16T00:33:09.000Z,68.8
2023-03-16T00:34:24.000Z,69
2023-03-16T00:35:41.000Z,69.1
2023-03-16T00:36:57.600Z,69.2
2023-03-16T00:38:13.000Z,69.4
2023-03-16T00:39:30.169Z,69.5
2023-03-16T00:40:46.000Z,69.1
2023-03-16T00:42:02.000Z,69.2
2023-03-16T00:43:18.000Z,69.4
2023-03-16T00:44:35.000Z,69.3
2023-03-16T00:45:51.000Z,69.7
2023-03-16T00:47:07.000Z,70
2023-03-16T00:48:23.000Z,70.1
2023-03-16T00:49:40.000Z,70.1
2023-03-16T00:50:55.000Z,69.9
2023-03-16T00:52:11.000Z,70.1
2023-03-16T00:53:28.000Z,69.9
2023-03-16T00:54:44.000Z,70.1
2023-03-16T00:56:00.000Z,70.4
2023-03-16T00:57:16.000Z,70.1
2023-03-16T00:58:33.000Z,70.2
2023-03-16T00:59:48.000Z,70.2
2023-03-16T01:01:04.000Z,70.5
2023-03-16T01:02:20.000Z,70.8
2023-03-16T01:03:35.000Z,71
2023-03-16T01:04:51.000Z,71
2023-03-16T01:06:08.000Z,70.8
2023-03-16T01:07:24.000Z,71
2023-03-16T01:08:40.000Z,70.6
2023-03-16T01:09:56.000Z,70.5
2023-03-16T01:11:13.000Z,70.8
2023-03-16T01:12:29.000Z,71.1
2023-03-16T01:13:45.000Z,71.4
2023-03-16T01:15:02.000Z,71.5
2023-03-16T01:16:18.000Z,71.5
2023-03-16T01:17:34.000Z,71.2
2023-03-16T01:18:51.156Z,71.3
2023-03-16T01:20:06.000Z,71.4
2023-03-16T01:21:22.000Z,70.9
2023-03-16T01:22:38.000Z,70.8
2023-03-16T01:23:55.000Z,71.4
2023-03-16T01:25:11.625Z,71.8
2023-03-16T01:26:27.000Z,72
2023-03-16T01:27:44.182Z,72.1
2023-03-16T01:28:59.000Z,72.1
2023-03-16T01:30:14.813Z,72.2
2023-03-16T01:31:30.000Z,72.4
2023-03-16T01:32:47.000Z,72.4
2023-03-16T01:34:02.000Z,71.9
2023-03-16T01:35:17.000Z,72.2
2023-03-16T01:36:34.000Z,72.4
2023-03-16T01:37:50.000Z,72.1
2023-03-16T01:39:06.000Z,72.2
2023-03-16T01:40:22.000Z,72.3
2023-03-16T01:41:39.000Z,72.4
2023-03-16T01:42:55.000Z,72.3
2023-03-16T01:44:11.000Z,72.7
2023-03-16T01:45:28.000Z,72.7
2023-03-16T01:46:44.000Z,72.4
2023-03-16T01:48:00.000Z,72.5
2023-03-16T01:49:16.000Z,72.7
2023-03-16T01:50:33.000Z,72.9
2023-03-16T01:51:48.000Z,72.5
2023-03-16T01:53:04.000Z,72.5
2023-03-16T01:54:21.000Z,72.5
2023-03-16T01:55:37.795Z,72.3
2023-03-16T01:56:53.000Z,72.5
2023-03-16T01:58:09.000Z,72.8
2023-03-16T01:59:26.000Z,72.6
2023-03-16T02:00:41.000Z,72.5
2023-03-16T02:01:56.000Z,72.5
2023-03-16T02:03:12.000Z,72.4
2023-03-16T02:04:27.000Z,72.5
2023-03-16T02:05:43.000Z,72.6
2023-03-16T02:07:00.000Z,72.7
2023-03-16T02:08:16.572Z,72.8
2023-03-16T02:09:32.877Z,72.9
2023-03-16T02:10:48.000Z,72.9
2023-03-16T02:12:05.000Z,72.8
2023-03-16T02:13:21.000Z,72.8
2023-03-16T02:14:37.000Z,72.9
2023-03-16T02:15:53.000Z,73
2023-03-16T02:17:09.000Z,72.9
2023-03-16T02:18:25.000Z,72.7
2023-03-16T02:19:41.000Z,72.7
2023-03-16T02:20:58.000Z,72.8
2023-03-16T02:22:14.791Z,72.8
2023-03-16T02:23:30.000Z,73
2023-03-16T02:24:47.000Z,72.8
2023-03-16T02:26:03.000Z,72.7
2023-03-16T02:27:20.182Z,72.8
2023-03-16T02:28:35.000Z,72.6
2023-03-16T02:29:51.000Z,72.8
2023-03-16T02:31:06.000Z,72.6
2023-03-16T02:32:22.000Z,72.9
2023-03-16T02:33:38.000Z,73
2023-03-16T02:34:53.000Z,72.8
2023-03-16T02:36:09.000Z,73
2023-03-16T02:37:26.000Z,72.7
2023-03-16T02:38:42.000Z,72.7
2023-03-16T02:39:58.000Z,72.6
2023-03-16T02:41:14.000Z,72.7
2023-03-16T02:42:31.000Z,72.9
2023-03-16T02:43:47.000Z,72.4
2023-03-16T02:45:03.000Z,72.3
2023-03-16T02:46:20.000Z,72.3
2023-03-16T02:47:36.616Z,72.3
2023-03-16T02:48:52.000Z,72.4
2023-03-16T02:50:09.186Z,72.4
2023-03-16T02:51:24.000Z,72.5
2023-03-16T02:52:40.000Z,72.2
2023-03-16T02:53:56.000Z,72.1
2023-03-16T02:55:13.000Z,71.8
2023-03-16T02:56:29.669Z,71.6
2023-03-16T02:57:45.000Z,71.4
2023-03-16T02:59:02.209Z,71.2
2023-03-16T03:01:34.000Z,71
2023-03-16T03:02:50.000Z,70.7
2023-03-16T03:04:07.000Z,70.9
2023-03-16T03:05:23.000Z,70.9
2023-03-16T03:06:38.962Z,71
2023-03-16T03:07:54.000Z,70.8
2023-03-16T03:09:09.000Z,70.4
2023-03-16T03:10:24.000Z,70.3
2023-03-16T03:11:40.000Z,70.1
2023-03-16T03:12:57.000Z,70.3
2023-03-16T03:14:13.000Z,70.5
2023-03-16T03:15:29.000Z,70.1
2023-03-16T03:16:46.000Z,70.4
2023-03-16T03:18:02.000Z,70.3
2023-03-16T03:19:18.000Z,70.1
2023-03-16T03:20:34.000Z,70.4
2023-03-16T03:21:51.000Z,70.2
2023-03-16T03:23:07.000Z,70.5
2023-03-16T03:24:23.000Z,70.5
2023-03-16T03:25:40.370Z,69.8
2023-03-16T03:26:55.000Z,69.7
2023-03-16T03:28:11.000Z,70.2
2023-03-16T03:29:27.000Z,69.6
2023-03-16T03:30:44.000Z,69.8
2023-03-16T03:32:00.842Z,69.3
2023-03-16T03:33:16.000Z,69.8
2023-03-16T03:34:33.000Z,69.8
2023-03-16T03:35:48.000Z,69.9
2023-03-16T03:37:03.000Z,69.6
2023-03-16T03:38:19.315Z,69.4
2023-03-16T03:39:34.000Z,69.3
2023-03-16T03:40:50.000Z,69.3
2023-03-16T03:42:06.000Z,69.1
2023-03-16T03:43:23.000Z,69.4
2023-03-16T03:44:39.000Z,69.2
2023-03-16T03:45:55.000Z,69
2023-03-16T03:47:12.000Z,69
2023-03-16T03:48:28.000Z,69
2023-03-16T03:49:44.000Z,68.8
2023-03-16T03:51:00.000Z,68.6
2023-03-16T03:52:17.000Z,68.4
2023-03-16T03:53:33.793Z,68.6
2023-03-16T03:54:49.000Z,68.5
2023-03-16T03:56:05.000Z,68.7
2023-03-16T03:57:21.000Z,68.4
2023-03-16T03:58:37.963Z,68.4
2023-03-16T03:59:53.000Z,68.4
2023-03-16T04:01:10.000Z,68
2023-03-16T04:02:26.000Z,68.2
2023-03-16T04:03:42.000Z,68
2023-03-16T04:04:58.000Z,68
2023-03-16T04:06:13.000Z,68
2023-03-16T04:07:29.000Z,68
2023-03-16T04:08:46.000Z,68
2023-03-16T04:10:01.000Z,68.2
2023-03-16T04:11:16.000Z,68.2
2023-03-16T04:12:32.000Z,68.2
2023-03-16T04:13:49.000Z,68
2023-03-16T04:15:05.000Z,68
2023-03-16T04:16:21.000Z,68.2
2023-03-16T04:17:38.000Z,68.2
2023-03-16T04:18:54.000Z,68.2
2023-03-16T04:20:10.000Z,68.3
2023-03-16T04:21:26.000Z,68.3
2023-03-16T04:22:43.000Z,68.3
2023-03-16T04:23:59.000Z,68.5
2023-03-16T04:25:15.000Z,68.2
2023-03-16T04:26:32.000Z,68
2023-03-16T04:27:47.000Z,68
2023-03-16T04:29:03.000Z,68
2023-03-16T04:30:20.000Z,68
2023-03-16T04:31:36.000Z,67.8
2023-03-16T04:32:52.000Z,68
2023-03-16T04:34:08.000Z,67.7
2023-03-16T04:35:25.000Z,67.7
2023-03-16T04:36:40.000Z,67.8
2023-03-16T04:39:12.000Z,67.8
2023-03-16T04:40:28.000Z,67.7
2023-03-16T04:41:44.000Z,67.6
2023-03-16T04:43:00.000Z,67.7
2023-03-16T04:44:17.000Z,67.5
2023-03-16T04:45:32.000Z,67.6
2023-03-16T04:46:47.000Z,67.5
2023-03-16T04:48:04.000Z,67.5
2023-03-16T04:49:20.000Z,67.6
2023-03-16T04:50:36.000Z,67.4
2023-03-16T04:51:53.000Z,67.4
2023-03-16T04:53:09.000Z,67.4
2023-03-16T04:54:25.810Z,67.3
2023-03-16T04:55:41.000Z,67.3
2023-03-16T04:56:58.000Z,67.2
2023-03-16T04:58:14.000Z,67.2
2023-03-16T04:59:30.000Z,67.4
2023-03-16T05:00:47.000Z,67
2023-03-16T05:02:03.000Z,67.4
2023-03-16T05:03:18.000Z,67
2023-03-16T05:04:34.000Z,67
2023-03-16T05:05:51.000Z,67
2023-03-16T05:07:07.000Z,67.2
2023-03-16T05:08:23.000Z,67.2
2023-03-16T05:09:39.000Z,67.2
2023-03-16T05:10:56.000Z,67.5
2023-03-16T05:12:12.000Z,67.1
2023-03-16T05:13:28.000Z,67
2023-03-16T05:14:45.000Z,67
2023-03-16T05:16:01.000Z,67.3
2023-03-16T05:17:16.000Z,67.4
2023-03-16T05:18:32.000Z,67.4
2023-03-16T05:19:48.000Z,67.8
2023-03-16T05:21:04.000Z,67.4
2023-03-16T05:22:19.000Z,67.5
2023-03-16T05:23:35.000Z,67.9
2023-03-16T05:24:51.000Z,68
2023-03-16T05:26:07.000Z,67.9
2023-03-16T05:27:23.000Z,68.1
2023-03-16T05:28:40.270Z,68.1
2023-03-16T05:29:56.000Z,67.9
2023-03-16T05:31:12.000Z,68.2
2023-03-16T05:32:28.972Z,68.2
2023-03-16T05:33:44.000Z,68.4
2023-03-16T05:35:01.000Z,68.5
2023-03-16T05:36:17.000Z,68.9
2023-03-16T05:37:33.000Z,68.9
2023-03-16T05:38:49.000Z,68.6
2023-03-16T05:40:05.000Z,68.8
2023-03-16T05:41:21.000Z,68.8
2023-03-16T05:42:37.000Z,68.7
2023-03-16T05:43:53.000Z,68.8
2023-03-16T05:45:10.344Z,68.9
2023-03-16T05:46:26.000Z,68.7
2023-03-16T05:47:42.000Z,68.8
2023-03-16T05:48:57.000Z,68.9
2023-03-16T05:50:13.000Z,68.6
2023-03-16T05:51:28.000Z,68.6
2023-03-16T05:52:43.000Z,68.6
2023-03-16T05:53:59.000Z,68.8
2023-03-16T05:55:16.000Z,68.1
2023-03-16T05:56:32.000Z,68.2
2023-03-16T05:57:48.000Z,68.1
2023-03-16T05:59:04.000Z,67.9
2023-03-16T06:00:21.196Z,68
2023-03-16T06:01:37.000Z,67.8
2023-03-16T06:02:53.000Z,67.8
2023-03-16T06:04:09.000Z,68
2023-03-16T06:05:25.000Z,67.8
2023-03-16T06:06:42.000Z,67.7
2023-03-16T06:07:58.000Z,67.9
2023-03-16T06:09:13.000Z,67.5
2023-03-16T06:10:30.094Z,67.7
2023-03-16T06:11:46.000Z,67.5
2023-03-16T06:13:02.000Z,67.5
2023-03-16T06:14:18.000Z,67.5
2023-03-16T06:15:34.000Z,67.7
2023-03-16T06:16:51.000Z,67.8
2023-03-16T06:18:06.000Z,67.4
2023-03-16T06:19:21.000Z,67.4
2023-03-16T06:20:37.000Z,67.4
2023-03-16T06:21:53.258Z,67.5
2023-03-16T06:23:08.522Z,67.2
2023-03-16T06:24:24.000Z,67.3
2023-03-16T06:25:40.000Z,67.5
2023-03-16T06:26:56.000Z,67.2
2023-03-16T06:28:13.000Z,67.1
2023-03-16T06:29:29.000Z,67.3
2023-03-16T06:30:44.000Z,66.7
2023-03-16T06:32:00.000Z,66.8
2023-03-16T06:33:17.000Z,66.7
2023-03-16T06:34:33.000Z,66.8
2023-03-16T06:35:49.000Z,66.7
2023-03-16T06:37:06.121Z,66.8
2023-03-16T06:38:22.000Z,66.4
2023-03-16T06:39:38.000Z,66.4
2023-03-16T06:40:54.000Z,66.3
2023-03-16T06:42:10.000Z,66.2
2023-03-16T06:43:27.000Z,66.2
2023-03-16T06:44:43.503Z,66.4
2023-03-16T06:45:59.000Z,66.2
2023-03-16T06:47:14.000Z,65.9
2023-03-16T06:48:30.000Z,66.1
2023-03-16T06:49:45.000Z,66
2023-03-16T06:51:01.746Z,66
2023-03-16T06:52:17.000Z,65.9
2023-03-16T06:53:33.000Z,66
2023-03-16T06:54:49.476Z,65.8
2023-03-16T06:56:04.000Z,65.7
2023-03-16T06:57:20.000Z,65.8
2023-03-16T06:58:36.000Z,65.7
2023-03-16T06:59:53.000Z,65.6
2023-03-16T07:01:09.645Z,65.8
2023-03-16T07:03:41.000Z,65.4
2023-03-16T07:04:58.000Z,65.5
2023-03-16T07:06:14.000Z,65.7
2023-03-16T07:07:30.822Z,65.2
2023-03-16T07:08:46.000Z,65.2
2023-03-16T07:10:03.297Z,65.1
2023-03-16T07:11:19.000Z,65.1
2023-03-16T07:12:34.000Z,65.1
2023-03-16T07:13:51.011Z,65
2023-03-16T07:15:06.000Z,64.8
2023-03-16T07:16:23.000Z,64.8
2023-03-16T07:17:39.705Z,64.8
2023-03-16T07:18:55.000Z,64.8
2023-03-16T07:20:11.937Z,64.8
2023-03-16T07:21:28.401Z,64.8
2023-03-16T07:22:44.000Z,64.8
2023-03-16T07:24:00.000Z,64.8
2023-03-16T07:25:16.000Z,64.9
2023-03-16T07:26:33.000Z,64.3
2023-03-16T07:27:49.000Z,64.6
2023-03-16T07:29:04.836Z,64.8
2023-03-16T07:30:21.047Z,64.5
2023-03-16T07:31:36.000Z,64.6
2023-03-16T07:32:51.592Z,64.7
2023-03-16T07:34:07.000Z,64.9
2023-03-16T07:35:23.000Z,64.8
2023-03-16T07:36:40.000Z,64.5
2023-03-16T07:37:55.000Z,64.2
2023-03-16T07:39:10.784Z,64.4
2023-03-16T07:40:26.000Z,64.2
2023-03-16T07:41:43.000Z,64.2
2023-03-16T07:42:59.000Z,64
2023-03-16T07:44:15.726Z,63.7
2023-03-16T07:45:31.000Z,63.9
2023-03-16T07:46:47.000Z,63.4
2023-03-16T07:48:04.000Z,63.3
2023-03-16T07:49:20.000Z,63.3
2023-03-16T07:50:36.000Z,63
2023-03-16T07:51:52.000Z,62.6
2023-03-16T07:53:09.000Z,62.7
2023-03-16T07:54:25.000Z,62.7
2023-03-16T07:55:40.000Z,62.7
2023-03-16T07:56:56.000Z,62.9
2023-03-16T07:58:13.000Z,63
2023-03-16T07:59:29.000Z,62.6
2023-03-16T08:00:45.000Z,62.6
2023-03-16T08:02:01.000Z,62.6
2023-03-16T08:03:18.249Z,62.6
2023-03-16T08:04:33.000Z,62.7
2023-03-16T08:05:48.000Z,62.8
2023-03-16T08:07:04.000Z,62.5
2023-03-16T08:08:21.225Z,62.4
2023-03-16T08:09:37.000Z,62.6
2023-03-16T08:10:53.000Z,62.6
2023-03-16T08:12:09.000Z,62.4
2023-03-16T08:13:25.000Z,62.1
2023-03-16T08:14:42.000Z,62.2
2023-03-16T08:15:58.621Z,62.4
2023-03-16T08:17:14.000Z,62.5
2023-03-16T08:18:31.071Z,62.5
2023-03-16T08:19:47.000Z,62.6
2023-03-16T08:21:03.000Z,62.6
2023-03-16T08:22:18.000Z,62.6
2023-03-16T08:23:34.000Z,62.7
2023-03-16T08:24:51.000Z,62.9
2023-03-16T08:26:07.000Z,62.8
2023-03-16T08:27:23.738Z,62.6
2023-03-16T08:28:39.074Z,62.6
2023-03-16T08:29:54.000Z,62.8
2023-03-16T08:31:10.000Z,62.5
2023-03-16T08:32:26.000Z,62.1
2023-03-16T08:33:42.000Z,62.1
2023-03-16T08:34:58.000Z,62.4
2023-03-16T08:36:15.000Z,62.2
2023-03-16T08:37:31.000Z,62
2023-03-16T08:38:47.000Z,62.3
2023-03-16T08:40:03.000Z,62
2023-03-16T08:41:20.349Z,61.7
2023-03-16T08:42:36.000Z,62.2
2023-03-16T08:43:52.827Z,62
2023-03-16T08:45:08.000Z,61.7
2023-03-16T08:46:24.000Z,61.1
2023-03-16T08:47:40.000Z,61.2
2023-03-16T08:48:56.000Z,60.8
2023-03-16T08:50:12.000Z,60.7
2023-03-16T08:51:28.000Z,60.9
2023-03-16T08:52:45.000Z,61.1
2023-03-16T08:54:01.000Z,61
2023-03-16T08:55:16.970Z,60.8
2023-03-16T08:56:33.218Z,60.7
2023-03-16T08:57:48.000Z,61
2023-03-16T08:59:04.000Z,60.9
2023-03-16T09:00:20.000Z,60.5
2023-03-16T09:01:37.151Z,60.7
2023-03-16T09:02:52.000Z,60.8
2023-03-16T09:04:07.650Z,60.8
2023-03-16T09:05:23.000Z,60.6
2023-03-16T09:06:39.000Z,60.6
2023-03-16T09:07:56.000Z,60.6
2023-03-16T09:09:12.000Z,60.6
2023-03-16T09:10:28.000Z,60.6
2023-03-16T09:11:45.054Z,60.5
2023-03-16T09:13:01.000Z,60.5
2023-03-16T09:14:17.000Z,59.9
2023-03-16T09:15:33.000Z,59.9
2023-03-16T09:16:49.000Z,59.3
2023-03-16T09:18:05.000Z,59.5
2023-03-16T09:19:22.462Z,59.4
2023-03-16T09:20:37.707Z,59.5
2023-03-16T09:21:53.000Z,59.5
2023-03-16T09:23:09.000Z,59.2
2023-03-16T09:24:26.000Z,59.7
2023-03-16T09:25:42.420Z,60
2023-03-16T09:26:58.874Z,59.8
2023-03-16T09:28:14.000Z,59.5
2023-03-16T09:29:30.000Z,59.9
2023-03-16T09:30:45.000Z,59.5
2023-03-16T09:32:01.000Z,59.7
2023-03-16T09:33:16.000Z,59.9
2023-03-16T09:34:32.366Z,59.5
2023-03-16T09:35:48.000Z,59.5
2023-03-16T09:37:04.000Z,59.5
2023-03-16T09:38:20.000Z,59.5
2023-03-16T09:39:37.000Z,59.6
2023-03-16T09:40:53.000Z,59.3
2023-03-16T09:42:09.908Z,59.4
2023-03-16T09:43:25.000Z,59.4
2023-03-16T09:44:41.000Z,59.4
2023-03-16T09:45:58.000Z,59.4
2023-03-16T09:47:14.000Z,59.8
2023-03-16T09:48:30.920Z,59.4
2023-03-16T09:49:46.000Z,59.4
2023-03-16T09:51:02.000Z,59.3
2023-03-16T09:52:18.000Z,59.4
2023-03-16T09:53:34.000Z,59.3
2023-03-16T09:54:50.000Z,59.1
2023-03-16T09:56:07.000Z,58.7
2023-03-16T09:59:56.022Z,58.5
2023-03-16T10:01:12.000Z,58.7
2023-03-16T10:02:28.000Z,58.4
2023-03-16T10:03:44.000Z,58.5
2023-03-16T10:05:00.987Z,58.1
2023-03-16T10:06:16.000Z,58.3
2023-03-16T10:07:32.000Z,57.5
2023-03-16T10:08:48.000Z,57.5
2023-03-16T10:10:04.000Z,57.3
2023-03-16T10:11:20.000Z,57.6
2023-03-16T10:12:37.397Z,58
2023-03-16T10:13:53.000Z,57.3
2023-03-16T10:15:09.000Z,57.4
2023-03-16T10:16:25.000Z,57.8
2023-03-16T10:17:42.327Z,58.4
2023-03-16T10:18:58.000Z,57.3
2023-03-16T10:20:14.798Z,58
2023-03-16T10:21:30.000Z,58.3
2023-03-16T10:22:47.266Z,57.7
2023-03-16T10:24:02.000Z,58.7
2023-03-16T10:25:18.000Z,58.8
2023-03-16T10:26:34.000Z,59.1
2023-03-16T10:27:50.000Z,59.6
2023-03-16T10:29:07.000Z,60.2
2023-03-16T10:30:23.678Z,60.9
2023-03-16T10:31:39.000Z,61.9
2023-03-16T10:32:55.000Z,62.7
2023-03-16T10:34:12.000Z,62.1
2023-03-16T10:35:28.611Z,62.4
2023-03-16T10:36:44.836Z,62
2023-03-16T10:38:00.000Z,61.7
2023-03-16T10:39:17.000Z,61.3
2023-03-16T10:40:32.558Z,61.8
2023-03-16T10:41:48.000Z,62.2
2023-03-16T10:43:04.000Z,62
2023-03-16T10:44:21.000Z,61.7
2023-03-16T10:45:36.514Z,61.7
2023-03-16T10:46:52.000Z,62
2023-03-16T10:48:08.000Z,61.9
2023-03-16T10:49:25.239Z,61.6
2023-03-16T10:50:41.467Z,61.8
2023-03-16T10:51:57.000Z,62.1
2023-03-16T10:53:13.000Z,61.4
2023-03-16T10:54:29.000Z,60.9
2023-03-16T10:55:46.000Z,60.5
2023-03-16T10:57:02.000Z,60.4
2023-03-16T10:58:18.847Z,60
2023-03-16T10:59:34.000Z,59.9
2023-03-16T11:00:51.000Z,59.5
2023-03-16T11:02:06.000Z,59.4
2023-03-16T11:03:22.000Z,59.2
2023-03-16T11:04:38.000Z,58.6
2023-03-16T11:05:55.280Z,58.9
2023-03-16T11:07:11.000Z,58.2
2023-03-16T11:08:27.000Z,58.2
2023-03-16T11:09:43.000Z,57.9
2023-03-16T11:10:59.000Z,58.1
2023-03-16T11:12:16.000Z,58.1
2023-03-16T11:13:32.000Z,57.7
2023-03-16T11:14:47.000Z,57.2
2023-03-16T11:16:02.000Z,57
2023-03-16T11:17:19.000Z,57
2023-03-16T11:18:34.000Z,56.5
2023-03-16T11:19:49.000Z,57
2023-03-16T11:21:06.161Z,56.3
2023-03-16T11:22:22.000Z,55.8
2023-03-16T11:23:38.636Z,56.1
2023-03-16T11:24:54.000Z,54.8
2023-03-16T11:26:11.258Z,54.7
2023-03-16T11:28:43.000Z,53.9
2023-03-16T11:29:59.000Z,52.9
2023-03-16T11:31:15.000Z,53.5
2023-03-16T11:32:32.307Z,53.3
2023-03-16T11:33:48.000Z,53.7
2023-03-16T11:35:04.000Z,53.7
2023-03-16T11:36:19.986Z,54
2023-03-16T11:37:35.000Z,54.4
2023-03-16T11:38:52.000Z,54.3
2023-03-16T11:40:08.000Z,54.4
2023-03-16T11:41:24.000Z,54.4
2023-03-16T11:42:40.000Z,54.6
2023-03-16T11:43:57.363Z,54.8
2023-03-16T11:45:13.000Z,54.9
2023-03-16T11:46:29.000Z,54.8
2023-03-16T11:47:46.087Z,54.4
2023-03-16T11:49:02.000Z,54.3
2023-03-16T11:50:18.000Z,54.5
2023-03-16T11:51:34.766Z,54.7
2023-03-16T11:52:49.000Z,54.6
2023-03-16T11:54:05.000Z,54.6
2023-03-16T11:55:21.000Z,54.1
2023-03-16T11:56:37.000Z,54.6
2023-03-16T11:57:52.000Z,54.5
2023-03-16T11:59:08.255Z,54.7
2023-03-16T12:00:24.000Z,54.8
2023-03-16T12:01:40.000Z,54.8
2023-03-16T12:02:56.000Z,54.6
2023-03-16T12:04:12.000Z,54.6
2023-03-16T12:06:45.656Z,54.5
2023-03-16T12:08:01.000Z,54.5
2023-03-16T12:09:17.000Z,54.2
2023-03-16T12:10:34.000Z,54.6
2023-03-16T12:11:50.000Z,54.1
2023-03-16T12:13:06.000Z,54.2
2023-03-16T12:14:23.074Z,54.4
2023-03-16T12:15:38.000Z,54.1
2023-03-16T12:16:54.000Z,54.4
2023-03-16T12:18:10.000Z,54.5
2023-03-16T12:19:26.000Z,54.6
2023-03-16T12:20:43.000Z,54.2
2023-03-16T12:21:59.497Z,54.3
2023-03-16T12:23:15.000Z,54.3
2023-03-16T12:24:31.000Z,54.5
2023-03-16T12:25:47.000Z,54
2023-03-16T12:27:04.000Z,54.3
2023-03-16T12:28:20.000Z,54
2023-03-16T12:29:36.895Z,53.6
2023-03-16T12:30:52.000Z,53.5
2023-03-16T12:32:08.368Z,53.5
2023-03-16T12:33:24.000Z,53.5
2023-03-16T12:34:40.000Z,53.3
2023-03-16T12:35:56.000Z,53
2023-03-16T12:38:29.000Z,52.3
2023-03-16T12:39:45.000Z,52.3
2023-03-16T12:41:01.000Z,52.6
2023-03-16T12:42:17.000Z,52.5
2023-03-16T12:44:50.710Z,52.8
2023-03-16T12:46:06.000Z,52.7
2023-03-16T12:47:23.164Z,53.2
2023-03-16T12:48:38.000Z,53.3
2023-03-16T12:49:54.000Z,53.1
2023-03-16T12:51:10.889Z,53
2023-03-16T12:52:27.113Z,52.9
2023-03-16T12:53:43.000Z,52.6
2023-03-16T12:56:15.000Z,51.3
2023-03-16T12:57:30.000Z,50
2023-03-16T12:58:46.000Z,49.5
2023-03-16T13:00:02.549Z,49.7
2023-03-16T13:01:18.000Z,49
2023-03-16T13:02:34.000Z,48.4
2023-03-16T13:03:51.000Z,49.5
2023-03-16T13:05:07.000Z,50.7
2023-03-16T13:06:23.000Z,51
2023-03-16T13:07:39.000Z,50.4
2023-03-16T13:08:55.000Z,50.8
2023-03-16T13:10:12.000Z,51.4
2023-03-16T13:11:27.000Z,51.4
2023-03-16T13:12:42.000Z,50.9
2023-03-16T13:13:58.000Z,51.2
2023-03-16T13:15:15.389Z,51.5
2023-03-16T13:16:31.000Z,51.7
2023-03-16T13:17:47.000Z,51.6
2023-03-16T13:19:03.000Z,51.9
2023-03-16T13:20:20.000Z,51.9
2023-03-16T13:21:36.548Z,51.7
2023-03-16T13:22:52.780Z,51.4
2023-03-16T13:24:08.000Z,51.6
2023-03-16T13:25:25.000Z,51.7
2023-03-16T13:26:41.000Z,51.9
2023-03-16T13:27:57.000Z,51.7
2023-03-16T13:29:12.000Z,52.1
2023-03-16T13:30:29.215Z,51.7
2023-03-16T13:31:45.000Z,52.2
2023-03-16T13:33:01.690Z,52.2
2023-03-16T13:34:17.000Z,52.1
2023-03-16T13:35:33.000Z,52.2
2023-03-16T13:36:50.000Z,52.2
2023-03-16T13:38:06.623Z,52.1
2023-03-16T13:39:22.000Z,51.8
2023-03-16T13:40:38.000Z,51.8
2023-03-16T13:41:55.000Z,52
2023-03-16T13:43:11.000Z,51.9
2023-03-16T13:44:27.000Z,52.1
2023-03-16T13:45:42.000Z,52.2
2023-03-16T13:46:59.000Z,52.4
2023-03-16T13:48:15.000Z,51.8
2023-03-16T13:49:31.000Z,51.5
2023-03-16T13:50:47.000Z,51.8
2023-03-16T13:52:03.000Z,51.7
2023-03-16T13:53:20.496Z,51.4
2023-03-16T13:54:36.000Z,51.6
2023-03-16T13:55:52.000Z,50.4
2023-03-16T13:57:08.000Z,50.3
2023-03-16T13:58:25.359Z,49.9
2023-03-16T13:59:41.000Z,49.5
2023-03-16T14:00:57.000Z,49.1
2023-03-16T14:02:12.000Z,49.2
2023-03-16T14:03:29.296Z,49.6
2023-03-16T14:04:45.000Z,50.1
2023-03-16T14:06:01.000Z,50.4
2023-03-16T14:07:17.000Z,50.6
2023-03-16T14:08:34.000Z,51
2023-03-16T14:09:50.000Z,51
2023-03-16T14:11:06.000Z,50.6
2023-03-16T14:12:22.960Z,51.3
2023-03-16T14:13:39.185Z,51.1
2023-03-16T14:14:55.000Z,50.8
2023-03-16T14:16:11.000Z,50.3
2023-03-16T14:17:27.000Z,50.7
2023-03-16T14:18:42.000Z,50.4
2023-03-16T14:19:59.000Z,50.3
2023-03-16T14:21:15.000Z,50.4
2023-03-16T14:22:31.000Z,50.2
2023-03-16T14:23:47.000Z,50.1
2023-03-16T14:25:04.305Z,50.7
2023-03-16T14:26:20.518Z,50.5
2023-03-16T14:27:36.751Z,50.6
2023-03-16T14:28:53.005Z,50.3
2023-03-16T14:30:08.000Z,50.6
2023-03-16T14:31:25.462Z,50.4
2023-03-16T14:32:41.000Z,50.6
2023-03-16T14:33:57.000Z,50.7
2023-03-16T14:35:12.000Z,50.6
2023-03-16T14:36:29.000Z,50.6
2023-03-16T14:37:45.660Z,50.5
2023-03-16T14:39:01.000Z,50.6
2023-03-16T14:40:18.117Z,50.7
2023-03-16T14:41:34.000Z,50.6
2023-03-16T14:42:50.000Z,50.4
2023-03-16T14:44:06.000Z,50.7
2023-03-16T14:45:22.000Z,50.4
2023-03-16T14:46:39.000Z,50.7
2023-03-16T14:47:54.000Z,50.7
2023-03-16T14:49:09.000Z,50.8
2023-03-16T14:50:26.013Z,51
2023-03-16T14:51:42.000Z,51
2023-03-16T14:52:57.000Z,51.3
2023-03-16T14:54:12.789Z,51.4
2023-03-16T14:55:28.000Z,51.8
2023-03-16T14:56:44.000Z,51.9
2023-03-16T14:58:01.000Z,51.9
2023-03-16T14:59:17.000Z,52
2023-03-16T15:00:33.154Z,52.2
2023-03-16T15:01:48.000Z,52.5
2023-03-16T15:03:05.000Z,52.4
2023-03-16T15:04:21.000Z,52.4
2023-03-16T15:05:37.000Z,52.2
2023-03-16T15:06:53.000Z,52.3
2023-03-16T15:08:10.000Z,52.3
2023-03-16T15:09:26.000Z,52.3
2023-03-16T15:10:42.816Z,52.6
2023-03-16T15:11:58.000Z,52.9
2023-03-16T15:13:15.000Z,52.8
2023-03-16T15:14:31.000Z,52.8
2023-03-16T15:15:47.000Z,52.4
2023-03-16T15:17:03.000Z,52.8
2023-03-16T15:18:18.000Z,53
2023-03-16T15:19:35.000Z,52.9
2023-03-16T15:20:51.000Z,52.9
2023-03-16T15:22:07.000Z,52.6
2023-03-16T15:23:23.000Z,53
2023-03-16T15:24:40.388Z,53
2023-03-16T15:25:56.000Z,53
2023-03-16T15:27:12.000Z,53
2023-03-16T15:28:29.089Z,53.4
2023-03-16T15:29:45.000Z,53
2023-03-16T15:31:01.000Z,53.2
2023-03-16T15:32:17.000Z,53
2023-03-16T15:33:33.000Z,53
2023-03-16T15:34:49.000Z,53.3
2023-03-16T15:36:05.000Z,53.3
2023-03-16T15:37:21.000Z,52.7
2023-03-16T15:38:37.988Z,52.5
2023-03-16T15:39:53.000Z,52.1
2023-03-16T15:41:10.000Z,52
2023-03-16T15:42:26.000Z,51.9
2023-03-16T15:43:42.000Z,52
2023-03-16T15:44:58.000Z,52.1
2023-03-16T15:46:15.000Z,52.1
2023-03-16T15:47:31.000Z,52.4
2023-03-16T15:48:47.000Z,52.7
2023-03-16T15:50:03.000Z,53
2023-03-16T15:51:19.000Z,53
2023-03-16T15:52:35.000Z,53.3
2023-03-16T15:55:06.000Z,53.5
2023-03-16T15:56:22.333Z,53.6
2023-03-16T15:57:37.000Z,53.2
2023-03-16T15:58:53.000Z,53.2
2023-03-16T16:00:08.000Z,53.3
2023-03-16T16:01:25.000Z,53.2
2023-03-16T16:02:40.000Z,53.4
2023-03-16T16:03:56.000Z,53
2023-03-16T16:05:12.000Z,53.3
2023-03-16T16:07:45.000Z,53.4
2023-03-16T16:09:01.000Z,53.7
2023-03-16T16:10:17.000Z,53.6
2023-03-16T16:11:33.000Z,53.5
2023-03-16T16:12:50.000Z,53.6
2023-03-16T16:14:06.651Z,53.6
2023-03-16T16:15:22.000Z,53.7
2023-03-16T16:16:39.114Z,53.7
2023-03-16T16:17:55.000Z,53.7
2023-03-16T16:19:10.000Z,53.9
2023-03-16T16:20:26.000Z,54.1
2023-03-16T16:21:42.000Z,53.9
2023-03-16T16:22:59.000Z,53.9
2023-03-16T16:24:15.000Z,54.1
2023-03-16T16:25:31.000Z,54.3
2023-03-16T16:26:47.000Z,54.3
2023-03-16T16:28:03.000Z,54.5
2023-03-16T16:29:20.000Z,54.5
2023-03-16T16:30:36.000Z,54.5
2023-03-16T16:31:52.000Z,54.5
2023-03-16T16:33:08.000Z,54.7
2023-03-16T16:34:25.000Z,54.7
2023-03-16T16:35:40.000Z,54.9
2023-03-16T16:36:56.000Z,54.9
2023-03-16T16:38:12.000Z,55.2
2023-03-16T16:39:29.000Z,55.1
2023-03-16T16:40:45.000Z,55.1
2023-03-16T16:42:01.000Z,55.1
2023-03-16T16:43:17.000Z,55.2
2023-03-16T16:44:34.000Z,55.2
2023-03-16T16:45:50.000Z,55.4
2023-03-16T16:47:06.000Z,55.5
2023-03-16T16:48:22.000Z,55.5
2023-03-16T16:49:38.000Z,55.6
2023-03-16T16:50:54.000Z,55.5
2023-03-16T16:52:09.000Z,55.8
2023-03-16T16:53:25.000Z,55.6
2023-03-16T16:54:40.000Z,55.6
2023-03-16T16:55:56.000Z,55.6
2023-03-16T16:57:12.718Z,55.6
2023-03-16T16:58:28.000Z,55.6
2023-03-16T16:59:44.000Z,55.7
2023-03-16T17:01:01.392Z,56
2023-03-16T17:02:17.000Z,56
2023-03-16T17:03:33.000Z,56.3
2023-03-16T17:04:49.000Z,56.4
2023-03-16T17:06:06.000Z,56.9
2023-03-16T17:07:22.000Z,57
2023-03-16T17:08:38.000Z,57.1
2023-03-16T17:09:54.000Z,57.3
2023-03-16T17:11:11.275Z,57.4
2023-03-16T17:12:26.518Z,57.6
2023-03-16T17:13:42.000Z,57.6
2023-03-16T17:14:58.000Z,57.8